Alder Creek, OR

10:38 PM PDT on August 20, 2014 (GMT -0700)
Portland International | Change Station
CLOSE
Current Station
Airport
Location: Portland,
Elevation: 16 ft
Nearby Weather Stations

Elev 16 ft 45.60 °N, 122.61 °W | Updated 45 minutes ago

Clear
Clear
65 °F
Feels Like 65 °F
N
8
Wind Variable Wind from NNW

Today
High -- | Low -- °F
--% Chance of Precip.
Yesterday
High -- | Low -- °F
Precip. -- in
6:16 AM 8:07 PM
Waning Crescent, 16% visible
Pressure 30.01 in
Visibility 10.0 miles
Clouds Clear
Dew Point 52 °F
Humidity 63%
Rainfall 0.00 in
Snow Depth 1 in , 0 in
UV 0 out of 12
Pollen 3.70 out of 12
Air Quality Not available.
Flu Activity Not available.
METAR KPDX 210453Z 33007KT 10SM CLR 18/11 A3001 RMK AO2 SLP160 T01830111

More Conditions Fewer Conditions

Pressure 30.01 in
Visibility 10.0 miles
Clouds Clear
Dew Point 52 °F
Humidity 63%
Rainfall 0.00 in
Snow Depth 1 in , 0 in
UV 0 out of 12
Pollen 3.70 out of 12
Air Quality Not available.
Flu Activity Not available.
METAR KPDX 210453Z 33007KT 10SM CLR 18/11 A3001 RMK AO2 SLP160 T01830111

More Conditions Fewer Conditions

10-Day Weather Forecast

Almanac

Astronomy

Aug. 20, 2014 Rise Set
Actual Time 6:16 AM PDT 8:07 PM PDT
Civil Twilight 5:44 AM PDT 8:39 PM PDT
Nautical Twilight 5:05 AM PDT 9:17 PM PDT
Astronomical Twilight 4:23 AM PDT 9:59 PM PDT
Moon 1:55 AM PDT (8/20) 5:01 PM PDT (8/20)
Length of Visible Light 14h 54m
Length of Day
13h 51m
Tomorrow will be 2m 54s shorter.
Waning Crescent, 16% of the Moon is Illuminated
Aug 21
Waning Crescent
Aug 25
New
Sep 2
First Quarter
Sep 8
Full
Sep 15
Last Quarter

Yesterday's Extremes

State Highs State Lows

Community

WunderPhotos

Upload Photos

1,745,858 photos uploaded!

Nearby

Snow Depth

Station Depth Elevation
North Fork 1 in 3120 ft
Blazed Alder 0 in 3650 ft
Mt. Hood Test Site 0 in 5400 ft
Mud Ridge 0 in 3800 ft
Red Hill 0 in 4400 ft

Earthquake Activity

City Distance Mag. Time & Date
No recent earthquake activity has been reported nearby.
Minimum magnitude displayed is 2.5.

Coastal Water Temperatures

Place Temperature
No Stations Reporting

Nearby Weather Stations